sensor_id;sensor_type;location;lat;lon;timestamp;P1;durP1;ratioP1;P2;durP2;ratioP2
16626;SDS011;8427;52.204;7.202;2024-01-06T00:01:50;36.08;;;9.40;;
16626;SDS011;8427;52.204;7.202;2024-01-06T00:04:19;33.70;;;9.23;;
16626;SDS011;8427;52.204;7.202;2024-01-06T00:06:52;35.85;;;9.40;;
16626;SDS011;8427;52.204;7.202;2024-01-06T00:09:20;31.85;;;9.05;;
16626;SDS011;8427;52.204;7.202;2024-01-06T00:11:49;32.30;;;9.68;;
16626;SDS011;8427;52.204;7.202;2024-01-06T00:14:17;30.33;;;8.77;;
16626;SDS011;8427;52.204;7.202;2024-01-06T00:16:46;31.02;;;8.77;;
16626;SDS011;8427;52.204;7.202;2024-01-06T00:19:14;31.73;;;9.40;;
16626;SDS011;8427;52.204;7.202;2024-01-06T00:21:44;35.97;;;9.15;;
16626;SDS011;8427;52.204;7.202;2024-01-06T00:24:14;30.10;;;8.93;;
16626;SDS011;8427;52.204;7.202;2024-01-06T00:26:42;33.20;;;9.85;;
16626;SDS011;8427;52.204;7.202;2024-01-06T00:29:11;36.20;;;9.30;;
16626;SDS011;8427;52.204;7.202;2024-01-06T00:31:39;39.03;;;10.13;;
16626;SDS011;8427;52.204;7.202;2024-01-06T00:34:07;32.20;;;9.23;;
16626;SDS011;8427;52.204;7.202;2024-01-06T00:36:36;27.97;;;9.10;;
16626;SDS011;8427;52.204;7.202;2024-01-06T00:39:04;26.98;;;8.60;;
16626;SDS011;8427;52.204;7.202;2024-01-06T00:41:34;25.55;;;7.53;;
16626;SDS011;8427;52.204;7.202;2024-01-06T00:44:02;22.10;;;7.25;;
16626;SDS011;8427;52.204;7.202;2024-01-06T00:46:31;22.20;;;6.55;;
16626;SDS011;8427;52.204;7.202;2024-01-06T00:48:59;19.17;;;6.18;;
16626;SDS011;8427;52.204;7.202;2024-01-06T00:51:28;20.92;;;6.50;;
16626;SDS011;8427;52.204;7.202;2024-01-06T00:53:56;21.00;;;6.57;;
16626;SDS011;8427;52.204;7.202;2024-01-06T00:56:24;20.77;;;6.90;;
16626;SDS011;8427;52.204;7.202;2024-01-06T00:58:55;20.80;;;6.68;;
16626;SDS011;8427;52.204;7.202;2024-01-06T01:01:24;26.45;;;7.60;;
16626;SDS011;8427;52.204;7.202;2024-01-06T01:03:52;21.88;;;7.07;;
16626;SDS011;8427;52.204;7.202;2024-01-06T01:06:21;21.83;;;6.88;;
16626;SDS011;8427;52.204;7.202;2024-01-06T01:08:49;22.60;;;7.35;;
16626;SDS011;8427;52.204;7.202;2024-01-06T01:11:18;24.93;;;7.20;;
16626;SDS011;8427;52.204;7.202;2024-01-06T01:13:47;21.42;;;6.95;;
16626;SDS011;8427;52.204;7.202;2024-01-06T01:16:17;21.17;;;7.13;;
16626;SDS011;8427;52.204;7.202;2024-01-06T01:18:46;26.63;;;7.10;;
16626;SDS011;8427;52.204;7.202;2024-01-06T01:21:14;24.58;;;7.93;;
16626;SDS011;8427;52.204;7.202;2024-01-06T01:23:43;23.90;;;7.78;;
16626;SDS011;8427;52.204;7.202;2024-01-06T01:28:40;17.48;;;6.00;;
16626;SDS011;8427;52.204;7.202;2024-01-06T01:31:09;16.17;;;5.45;;
16626;SDS011;8427;52.204;7.202;2024-01-06T01:33:39;17.87;;;5.80;;
16626;SDS011;8427;52.204;7.202;2024-01-06T01:36:08;16.55;;;5.38;;
16626;SDS011;8427;52.204;7.202;2024-01-06T01:38:36;18.30;;;6.38;;
16626;SDS011;8427;52.204;7.202;2024-01-06T01:41:04;18.40;;;6.40;;
16626;SDS011;8427;52.204;7.202;2024-01-06T01:43:33;18.48;;;6.30;;
16626;SDS011;8427;52.204;7.202;2024-01-06T01:46:01;17.15;;;5.68;;
16626;SDS011;8427;52.204;7.202;2024-01-06T01:48:30;20.98;;;6.90;;
16626;SDS011;8427;52.204;7.202;2024-01-06T01:51:02;19.38;;;6.22;;
16626;SDS011;8427;52.204;7.202;2024-01-06T01:53:31;20.42;;;6.38;;
16626;SDS011;8427;52.204;7.202;2024-01-06T01:55:59;19.48;;;6.32;;
16626;SDS011;8427;52.204;7.202;2024-01-06T01:58:28;18.40;;;5.90;;
16626;SDS011;8427;52.204;7.202;2024-01-06T02:00:56;18.13;;;5.57;;
16626;SDS011;8427;52.204;7.202;2024-01-06T02:03:24;14.85;;;5.68;;
16626;SDS011;8427;52.204;7.202;2024-01-06T02:05:53;15.48;;;5.80;;
16626;SDS011;8427;52.204;7.202;2024-01-06T02:08:23;19.13;;;6.20;;
16626;SDS011;8427;52.204;7.202;2024-01-06T02:10:52;17.13;;;6.22;;
16626;SDS011;8427;52.204;7.202;2024-01-06T02:13:22;20.13;;;6.45;;
16626;SDS011;8427;52.204;7.202;2024-01-06T02:15:50;19.05;;;6.30;;
16626;SDS011;8427;52.204;7.202;2024-01-06T02:18:20;24.50;;;7.35;;
16626;SDS011;8427;52.204;7.202;2024-01-06T02:20:48;22.90;;;6.78;;
16626;SDS011;8427;52.204;7.202;2024-01-06T02:23:20;23.27;;;7.55;;
16626;SDS011;8427;52.204;7.202;2024-01-06T02:25:49;24.77;;;7.45;;
16626;SDS011;8427;52.204;7.202;2024-01-06T02:28:17;24.85;;;8.02;;
16626;SDS011;8427;52.204;7.202;2024-01-06T02:30:46;21.52;;;7.00;;
16626;SDS011;8427;52.204;7.202;2024-01-06T02:33:14;23.52;;;7.10;;
16626;SDS011;8427;52.204;7.202;2024-01-06T02:35:43;24.98;;;7.25;;
16626;SDS011;8427;52.204;7.202;2024-01-06T02:38:12;23.90;;;7.15;;
16626;SDS011;8427;52.204;7.202;2024-01-06T02:40:42;18.45;;;5.80;;
16626;SDS011;8427;52.204;7.202;2024-01-06T02:43:10;14.45;;;4.95;;
16626;SDS011;8427;52.204;7.202;2024-01-06T02:45:38;16.48;;;5.45;;
16626;SDS011;8427;52.204;7.202;2024-01-06T02:48:07;15.07;;;5.60;;
16626;SDS011;8427;52.204;7.202;2024-01-06T02:50:35;21.90;;;6.38;;
16626;SDS011;8427;52.204;7.202;2024-01-06T02:53:04;22.50;;;6.63;;
16626;SDS011;8427;52.204;7.202;2024-01-06T02:55:32;19.25;;;6.65;;
16626;SDS011;8427;52.204;7.202;2024-01-06T02:58:02;20.65;;;6.93;;
16626;SDS011;8427;52.204;7.202;2024-01-06T03:00:31;20.58;;;6.47;;
16626;SDS011;8427;52.204;7.202;2024-01-06T03:02:59;21.00;;;6.23;;
16626;SDS011;8427;52.204;7.202;2024-01-06T03:05:28;22.83;;;6.35;;
16626;SDS011;8427;52.204;7.202;2024-01-06T03:07:56;21.13;;;6.68;;
16626;SDS011;8427;52.204;7.202;2024-01-06T03:10:25;21.80;;;6.85;;
16626;SDS011;8427;52.204;7.202;2024-01-06T03:12:54;19.02;;;6.60;;
16626;SDS011;8427;52.204;7.202;2024-01-06T03:15:23;20.00;;;6.60;;
16626;SDS011;8427;52.204;7.202;2024-01-06T03:17:52;23.75;;;7.20;;
16626;SDS011;8427;52.204;7.202;2024-01-06T03:20:20;24.63;;;7.03;;
16626;SDS011;8427;52.204;7.202;2024-01-06T03:22:49;22.38;;;8.13;;
16626;SDS011;8427;52.204;7.202;2024-01-06T03:25:17;20.55;;;7.05;;
16626;SDS011;8427;52.204;7.202;2024-01-06T03:27:45;17.47;;;6.37;;
16626;SDS011;8427;52.204;7.202;2024-01-06T03:30:14;19.55;;;6.85;;
16626;SDS011;8427;52.204;7.202;2024-01-06T03:32:44;24.38;;;7.68;;
16626;SDS011;8427;52.204;7.202;2024-01-06T03:35:13;26.75;;;7.72;;
16626;SDS011;8427;52.204;7.202;2024-01-06T03:37:41;21.35;;;6.95;;
16626;SDS011;8427;52.204;7.202;2024-01-06T03:42:39;23.35;;;7.45;;
16626;SDS011;8427;52.204;7.202;2024-01-06T03:45:08;22.67;;;6.90;;
16626;SDS011;8427;52.204;7.202;2024-01-06T03:47:37;17.42;;;5.88;;
16626;SDS011;8427;52.204;7.202;2024-01-06T03:50:07;18.57;;;5.53;;
16626;SDS011;8427;52.204;7.202;2024-01-06T03:52:36;15.57;;;5.38;;
16626;SDS011;8427;52.204;7.202;2024-01-06T03:55:05;13.75;;;5.32;;
16626;SDS011;8427;52.204;7.202;2024-01-06T04:00:02;16.15;;;5.80;;
16626;SDS011;8427;52.204;7.202;2024-01-06T04:04:59;17.05;;;5.40;;
16626;SDS011;8427;52.204;7.202;2024-01-06T04:07:29;20.42;;;6.72;;
16626;SDS011;8427;52.204;7.202;2024-01-06T04:09:57;18.10;;;5.97;;
16626;SDS011;8427;52.204;7.202;2024-01-06T04:12:26;16.17;;;6.10;;
16626;SDS011;8427;52.204;7.202;2024-01-06T04:14:54;15.63;;;5.97;;
16626;SDS011;8427;52.204;7.202;2024-01-06T04:17:23;20.15;;;6.22;;
16626;SDS011;8427;52.204;7.202;2024-01-06T04:19:52;20.33;;;6.95;;
16626;SDS011;8427;52.204;7.202;2024-01-06T04:22:21;19.10;;;6.27;;
16626;SDS011;8427;52.204;7.202;2024-01-06T04:24:51;17.17;;;6.68;;
16626;SDS011;8427;52.204;7.202;2024-01-06T04:27:20;20.17;;;6.72;;
16626;SDS011;8427;52.204;7.202;2024-01-06T04:29:48;18.23;;;6.60;;
16626;SDS011;8427;52.204;7.202;2024-01-06T04:32:20;19.60;;;6.30;;
16626;SDS011;8427;52.204;7.202;2024-01-06T04:34:48;18.98;;;6.55;;
16626;SDS011;8427;52.204;7.202;2024-01-06T04:37:16;15.52;;;6.35;;
16626;SDS011;8427;52.204;7.202;2024-01-06T04:39:45;20.25;;;7.05;;
16626;SDS011;8427;52.204;7.202;2024-01-06T04:42:14;19.95;;;6.25;;
16626;SDS011;8427;52.204;7.202;2024-01-06T04:44:43;19.40;;;6.75;;
16626;SDS011;8427;52.204;7.202;2024-01-06T04:47:11;20.77;;;7.73;;
16626;SDS011;8427;52.204;7.202;2024-01-06T04:49:39;20.45;;;7.32;;
16626;SDS011;8427;52.204;7.202;2024-01-06T04:52:08;20.03;;;7.50;;
16626;SDS011;8427;52.204;7.202;2024-01-06T04:54:36;18.95;;;7.28;;
16626;SDS011;8427;52.204;7.202;2024-01-06T04:57:05;20.45;;;7.25;;
16626;SDS011;8427;52.204;7.202;2024-01-06T04:59:35;19.95;;;7.20;;
16626;SDS011;8427;52.204;7.202;2024-01-06T05:02:04;21.00;;;7.78;;
16626;SDS011;8427;52.204;7.202;2024-01-06T05:04:33;20.30;;;7.32;;
16626;SDS011;8427;52.204;7.202;2024-01-06T05:07:01;25.05;;;8.85;;
16626;SDS011;8427;52.204;7.202;2024-01-06T05:09:30;20.43;;;7.40;;
16626;SDS011;8427;52.204;7.202;2024-01-06T05:11:58;22.73;;;7.57;;
16626;SDS011;8427;52.204;7.202;2024-01-06T05:14:26;23.58;;;8.10;;
16626;SDS011;8427;52.204;7.202;2024-01-06T05:16:56;24.10;;;8.25;;
16626;SDS011;8427;52.204;7.202;2024-01-06T05:19:24;26.02;;;8.50;;
16626;SDS011;8427;52.204;7.202;2024-01-06T05:21:53;25.10;;;8.65;;
16626;SDS011;8427;52.204;7.202;2024-01-06T05:24:22;23.23;;;8.47;;
16626;SDS011;8427;52.204;7.202;2024-01-06T05:26:50;26.45;;;10.32;;
16626;SDS011;8427;52.204;7.202;2024-01-06T05:29:19;27.57;;;9.30;;
16626;SDS011;8427;52.204;7.202;2024-01-06T05:31:47;30.52;;;9.77;;
16626;SDS011;8427;52.204;7.202;2024-01-06T05:34:17;30.33;;;9.70;;
16626;SDS011;8427;52.204;7.202;2024-01-06T05:36:45;27.33;;;8.40;;
16626;SDS011;8427;52.204;7.202;2024-01-06T05:39:14;21.83;;;7.20;;
16626;SDS011;8427;52.204;7.202;2024-01-06T05:41:42;28.77;;;8.27;;
16626;SDS011;8427;52.204;7.202;2024-01-06T05:44:11;28.20;;;8.07;;
16626;SDS011;8427;52.204;7.202;2024-01-06T05:46:39;27.77;;;9.27;;
16626;SDS011;8427;52.204;7.202;2024-01-06T05:49:08;28.63;;;8.60;;
16626;SDS011;8427;52.204;7.202;2024-01-06T05:51:43;30.30;;;8.32;;
16626;SDS011;8427;52.204;7.202;2024-01-06T05:54:12;25.73;;;8.18;;
16626;SDS011;8427;52.204;7.202;2024-01-06T05:56:41;25.50;;;7.63;;
16626;SDS011;8427;52.204;7.202;2024-01-06T05:59:09;23.58;;;8.00;;
16626;SDS011;8427;52.204;7.202;2024-01-06T06:01:37;22.33;;;7.97;;
16626;SDS011;8427;52.204;7.202;2024-01-06T06:04:06;24.67;;;8.38;;
16626;SDS011;8427;52.204;7.202;2024-01-06T06:06:35;25.05;;;8.32;;
16626;SDS011;8427;52.204;7.202;2024-01-06T06:09:05;23.52;;;8.23;;
16626;SDS011;8427;52.204;7.202;2024-01-06T06:11:35;23.67;;;7.82;;
16626;SDS011;8427;52.204;7.202;2024-01-06T06:14:04;24.77;;;8.55;;
16626;SDS011;8427;52.204;7.202;2024-01-06T06:16:33;23.13;;;8.27;;
16626;SDS011;8427;52.204;7.202;2024-01-06T06:19:01;23.33;;;8.30;;
16626;SDS011;8427;52.204;7.202;2024-01-06T06:21:30;24.77;;;8.10;;
16626;SDS011;8427;52.204;7.202;2024-01-06T06:23:59;24.75;;;8.55;;
16626;SDS011;8427;52.204;7.202;2024-01-06T06:26:29;25.98;;;8.85;;
16626;SDS011;8427;52.204;7.202;2024-01-06T06:28:59;25.70;;;8.93;;
16626;SDS011;8427;52.204;7.202;2024-01-06T06:31:28;31.20;;;8.93;;
16626;SDS011;8427;52.204;7.202;2024-01-06T06:33:56;29.83;;;9.40;;
16626;SDS011;8427;52.204;7.202;2024-01-06T06:36:25;25.40;;;8.50;;
16626;SDS011;8427;52.204;7.202;2024-01-06T06:38:54;31.48;;;8.70;;
16626;SDS011;8427;52.204;7.202;2024-01-06T06:41:24;27.33;;;9.10;;
16626;SDS011;8427;52.204;7.202;2024-01-06T06:43:54;25.98;;;8.80;;
16626;SDS011;8427;52.204;7.202;2024-01-06T06:46:24;27.83;;;8.50;;
16626;SDS011;8427;52.204;7.202;2024-01-06T06:48:57;28.08;;;8.40;;
16626;SDS011;8427;52.204;7.202;2024-01-06T06:51:27;29.00;;;10.43;;
16626;SDS011;8427;52.204;7.202;2024-01-06T06:53:58;24.92;;;8.38;;
16626;SDS011;8427;52.204;7.202;2024-01-06T06:56:57;24.95;;;8.10;;
16626;SDS011;8427;52.204;7.202;2024-01-06T06:59:27;28.02;;;9.27;;
16626;SDS011;8427;52.204;7.202;2024-01-06T07:01:56;30.27;;;9.80;;
16626;SDS011;8427;52.204;7.202;2024-01-06T07:04:25;28.13;;;9.60;;
16626;SDS011;8427;52.204;7.202;2024-01-06T07:06:54;29.70;;;9.95;;
16626;SDS011;8427;52.204;7.202;2024-01-06T07:09:24;32.83;;;9.85;;
16626;SDS011;8427;52.204;7.202;2024-01-06T07:11:53;30.02;;;9.88;;
16626;SDS011;8427;52.204;7.202;2024-01-06T07:14:23;27.48;;;9.52;;
16626;SDS011;8427;52.204;7.202;2024-01-06T07:16:53;28.63;;;9.52;;
16626;SDS011;8427;52.204;7.202;2024-01-06T07:19:22;30.75;;;10.45;;
16626;SDS011;8427;52.204;7.202;2024-01-06T07:21:50;31.08;;;10.05;;
16626;SDS011;8427;52.204;7.202;2024-01-06T07:24:24;27.85;;;9.55;;
16626;SDS011;8427;52.204;7.202;2024-01-06T07:26:53;27.65;;;9.07;;
16626;SDS011;8427;52.204;7.202;2024-01-06T07:29:22;30.98;;;9.38;;
16626;SDS011;8427;52.204;7.202;2024-01-06T07:31:52;26.65;;;8.80;;
16626;SDS011;8427;52.204;7.202;2024-01-06T07:34:21;28.25;;;8.90;;
16626;SDS011;8427;52.204;7.202;2024-01-06T07:36:53;26.98;;;8.85;;
16626;SDS011;8427;52.204;7.202;2024-01-06T07:39:22;26.92;;;8.85;;
16626;SDS011;8427;52.204;7.202;2024-01-06T07:41:51;28.23;;;8.88;;
16626;SDS011;8427;52.204;7.202;2024-01-06T07:46:53;27.83;;;8.88;;
16626;SDS011;8427;52.204;7.202;2024-01-06T07:49:22;26.08;;;9.02;;
16626;SDS011;8427;52.204;7.202;2024-01-06T07:51:50;24.52;;;8.45;;
16626;SDS011;8427;52.204;7.202;2024-01-06T07:54:19;27.47;;;8.97;;
16626;SDS011;8427;52.204;7.202;2024-01-06T07:56:47;25.63;;;8.63;;
16626;SDS011;8427;52.204;7.202;2024-01-06T07:59:16;27.27;;;8.77;;
16626;SDS011;8427;52.204;7.202;2024-01-06T08:01:45;26.73;;;8.60;;
16626;SDS011;8427;52.204;7.202;2024-01-06T08:04:14;28.03;;;9.17;;
16626;SDS011;8427;52.204;7.202;2024-01-06T08:06:43;27.30;;;9.20;;
16626;SDS011;8427;52.204;7.202;2024-01-06T08:09:11;34.13;;;10.40;;
16626;SDS011;8427;52.204;7.202;2024-01-06T08:11:40;29.45;;;10.15;;
16626;SDS011;8427;52.204;7.202;2024-01-06T08:14:12;31.70;;;9.40;;
16626;SDS011;8427;52.204;7.202;2024-01-06T08:16:41;29.70;;;9.27;;
16626;SDS011;8427;52.204;7.202;2024-01-06T08:19:09;27.00;;;9.20;;
16626;SDS011;8427;52.204;7.202;2024-01-06T08:21:40;27.60;;;8.85;;
16626;SDS011;8427;52.204;7.202;2024-01-06T08:24:08;33.58;;;9.18;;
16626;SDS011;8427;52.204;7.202;2024-01-06T08:26:37;30.05;;;9.23;;
16626;SDS011;8427;52.204;7.202;2024-01-06T08:29:05;31.38;;;8.88;;
16626;SDS011;8427;52.204;7.202;2024-01-06T08:31:34;26.27;;;9.37;;
16626;SDS011;8427;52.204;7.202;2024-01-06T08:34:03;27.65;;;8.13;;
16626;SDS011;8427;52.204;7.202;2024-01-06T08:36:33;24.02;;;7.93;;
16626;SDS011;8427;52.204;7.202;2024-01-06T08:39:03;27.02;;;8.70;;
16626;SDS011;8427;52.204;7.202;2024-01-06T08:41:32;34.25;;;9.73;;
16626;SDS011;8427;52.204;7.202;2024-01-06T08:44:00;27.88;;;8.95;;
16626;SDS011;8427;52.204;7.202;2024-01-06T08:46:29;30.38;;;9.07;;
16626;SDS011;8427;52.204;7.202;2024-01-06T08:48:58;28.02;;;8.75;;
16626;SDS011;8427;52.204;7.202;2024-01-06T08:53:57;30.83;;;8.60;;
16626;SDS011;8427;52.204;7.202;2024-01-06T08:56:27;28.55;;;9.15;;
16626;SDS011;8427;52.204;7.202;2024-01-06T08:58:56;27.88;;;9.32;;
16626;SDS011;8427;52.204;7.202;2024-01-06T09:01:25;28.42;;;8.48;;
16626;SDS011;8427;52.204;7.202;2024-01-06T09:03:53;29.73;;;9.50;;
16626;SDS011;8427;52.204;7.202;2024-01-06T09:06:22;27.60;;;8.60;;
16626;SDS011;8427;52.204;7.202;2024-01-06T09:08:50;25.25;;;8.07;;
16626;SDS011;8427;52.204;7.202;2024-01-06T09:11:19;24.27;;;8.23;;
16626;SDS011;8427;52.204;7.202;2024-01-06T09:13:49;26.42;;;8.07;;
16626;SDS011;8427;52.204;7.202;2024-01-06T09:16:19;26.52;;;7.80;;
16626;SDS011;8427;52.204;7.202;2024-01-06T09:18:48;22.67;;;8.68;;
16626;SDS011;8427;52.204;7.202;2024-01-06T09:21:16;28.10;;;9.02;;
16626;SDS011;8427;52.204;7.202;2024-01-06T09:23:45;23.63;;;7.93;;
16626;SDS011;8427;52.204;7.202;2024-01-06T09:26:14;20.42;;;7.07;;
16626;SDS011;8427;52.204;7.202;2024-01-06T09:28:42;25.65;;;8.02;;
16626;SDS011;8427;52.204;7.202;2024-01-06T09:31:13;24.10;;;8.10;;
16626;SDS011;8427;52.204;7.202;2024-01-06T09:33:41;19.33;;;7.07;;
16626;SDS011;8427;52.204;7.202;2024-01-06T09:36:10;22.80;;;7.37;;
16626;SDS011;8427;52.204;7.202;2024-01-06T09:38:41;20.35;;;7.63;;
16626;SDS011;8427;52.204;7.202;2024-01-06T09:41:09;17.67;;;6.82;;
16626;SDS011;8427;52.204;7.202;2024-01-06T09:43:39;17.65;;;7.07;;
16626;SDS011;8427;52.204;7.202;2024-01-06T09:46:10;18.77;;;6.88;;
16626;SDS011;8427;52.204;7.202;2024-01-06T09:48:43;17.88;;;7.05;;
16626;SDS011;8427;52.204;7.202;2024-01-06T09:51:13;22.65;;;7.65;;
16626;SDS011;8427;52.204;7.202;2024-01-06T09:53:43;18.60;;;6.95;;
16626;SDS011;8427;52.204;7.202;2024-01-06T09:56:15;17.35;;;6.72;;
16626;SDS011;8427;52.204;7.202;2024-01-06T10:01:14;16.30;;;6.65;;
16626;SDS011;8427;52.204;7.202;2024-01-06T10:03:44;17.38;;;6.82;;
16626;SDS011;8427;52.204;7.202;2024-01-06T10:06:13;19.90;;;6.88;;
16626;SDS011;8427;52.204;7.202;2024-01-06T10:08:42;19.95;;;7.68;;
16626;SDS011;8427;52.204;7.202;2024-01-06T10:11:11;20.15;;;7.70;;
16626;SDS011;8427;52.204;7.202;2024-01-06T10:13:40;21.83;;;8.07;;
16626;SDS011;8427;52.204;7.202;2024-01-06T10:16:09;20.43;;;7.60;;
16626;SDS011;8427;52.204;7.202;2024-01-06T10:18:39;23.13;;;8.23;;
16626;SDS011;8427;52.204;7.202;2024-01-06T10:21:09;20.92;;;8.23;;
16626;SDS011;8427;52.204;7.202;2024-01-06T10:23:38;24.77;;;8.75;;
16626;SDS011;8427;52.204;7.202;2024-01-06T10:26:12;23.42;;;8.55;;
16626;SDS011;8427;52.204;7.202;2024-01-06T10:28:41;20.13;;;7.47;;
16626;SDS011;8427;52.204;7.202;2024-01-06T10:31:09;23.08;;;7.88;;
16626;SDS011;8427;52.204;7.202;2024-01-06T10:33:40;28.55;;;9.93;;
16626;SDS011;8427;52.204;7.202;2024-01-06T10:36:09;21.73;;;8.02;;
16626;SDS011;8427;52.204;7.202;2024-01-06T10:38:37;24.25;;;8.65;;
16626;SDS011;8427;52.204;7.202;2024-01-06T10:41:08;24.88;;;8.50;;
16626;SDS011;8427;52.204;7.202;2024-01-06T10:43:39;24.02;;;9.02;;
16626;SDS011;8427;52.204;7.202;2024-01-06T10:46:11;24.48;;;8.95;;
16626;SDS011;8427;52.204;7.202;2024-01-06T10:48:42;23.45;;;9.00;;
16626;SDS011;8427;52.204;7.202;2024-01-06T10:51:13;21.92;;;8.55;;
16626;SDS011;8427;52.204;7.202;2024-01-06T10:53:45;22.23;;;8.90;;
16626;SDS011;8427;52.204;7.202;2024-01-06T10:56:18;23.25;;;8.13;;
16626;SDS011;8427;52.204;7.202;2024-01-06T10:58:47;18.75;;;7.38;;
16626;SDS011;8427;52.204;7.202;2024-01-06T11:01:19;20.75;;;7.53;;
16626;SDS011;8427;52.204;7.202;2024-01-06T11:03:57;17.50;;;7.13;;
16626;SDS011;8427;52.204;7.202;2024-01-06T11:06:27;15.63;;;6.63;;
16626;SDS011;8427;52.204;7.202;2024-01-06T11:09:01;18.23;;;7.20;;
16626;SDS011;8427;52.204;7.202;2024-01-06T11:11:34;19.40;;;7.63;;
16626;SDS011;8427;52.204;7.202;2024-01-06T11:14:17;19.10;;;7.10;;
16626;SDS011;8427;52.204;7.202;2024-01-06T11:16:46;17.35;;;7.13;;
16626;SDS011;8427;52.204;7.202;2024-01-06T11:22:23;21.33;;;7.47;;
16626;SDS011;8427;52.204;7.202;2024-01-06T11:24:54;20.00;;;7.75;;
16626;SDS011;8427;52.204;7.202;2024-01-06T11:27:25;21.52;;;8.30;;
16626;SDS011;8427;52.204;7.202;2024-01-06T11:29:56;20.23;;;6.93;;
16626;SDS011;8427;52.204;7.202;2024-01-06T11:32:28;19.88;;;7.75;;
16626;SDS011;8427;52.204;7.202;2024-01-06T11:35:06;18.77;;;7.50;;
16626;SDS011;8427;52.204;7.202;2024-01-06T11:37:50;20.75;;;7.70;;
16626;SDS011;8427;52.204;7.202;2024-01-06T11:40:30;20.95;;;7.97;;
16626;SDS011;8427;52.204;7.202;2024-01-06T11:43:01;21.10;;;8.38;;
16626;SDS011;8427;52.204;7.202;2024-01-06T11:45:32;28.08;;;9.32;;
16626;SDS011;8427;52.204;7.202;2024-01-06T11:48:02;20.83;;;8.27;;
16626;SDS011;8427;52.204;7.202;2024-01-06T11:50:33;24.90;;;8.70;;
16626;SDS011;8427;52.204;7.202;2024-01-06T11:53:03;25.13;;;8.82;;
16626;SDS011;8427;52.204;7.202;2024-01-06T11:55:32;26.42;;;9.32;;
16626;SDS011;8427;52.204;7.202;2024-01-06T11:58:01;28.05;;;9.65;;
16626;SDS011;8427;52.204;7.202;2024-01-06T12:00:31;27.13;;;9.48;;
16626;SDS011;8427;52.204;7.202;2024-01-06T12:03:03;26.48;;;9.15;;
16626;SDS011;8427;52.204;7.202;2024-01-06T12:05:33;24.83;;;9.13;;
16626;SDS011;8427;52.204;7.202;2024-01-06T12:08:03;27.98;;;9.23;;
16626;SDS011;8427;52.204;7.202;2024-01-06T12:10:35;25.80;;;9.80;;
16626;SDS011;8427;52.204;7.202;2024-01-06T12:15:35;24.33;;;9.15;;
16626;SDS011;8427;52.204;7.202;2024-01-06T12:18:07;29.83;;;9.40;;
16626;SDS011;8427;52.204;7.202;2024-01-06T12:20:37;24.60;;;9.02;;
16626;SDS011;8427;52.204;7.202;2024-01-06T12:23:06;24.65;;;9.05;;
16626;SDS011;8427;52.204;7.202;2024-01-06T12:25:35;23.33;;;8.38;;
16626;SDS011;8427;52.204;7.202;2024-01-06T12:28:06;24.08;;;8.57;;
16626;SDS011;8427;52.204;7.202;2024-01-06T12:33:06;24.75;;;8.40;;
16626;SDS011;8427;52.204;7.202;2024-01-06T12:35:36;24.27;;;8.88;;
16626;SDS011;8427;52.204;7.202;2024-01-06T12:38:05;23.98;;;8.13;;
16626;SDS011;8427;52.204;7.202;2024-01-06T12:40:35;20.75;;;7.80;;
16626;SDS011;8427;52.204;7.202;2024-01-06T12:43:05;23.05;;;8.00;;
16626;SDS011;8427;52.204;7.202;2024-01-06T12:45:34;20.55;;;8.10;;
16626;SDS011;8427;52.204;7.202;2024-01-06T12:48:03;25.23;;;8.75;;
16626;SDS011;8427;52.204;7.202;2024-01-06T12:53:01;18.67;;;7.55;;
16626;SDS011;8427;52.204;7.202;2024-01-06T12:55:30;21.75;;;8.02;;
16626;SDS011;8427;52.204;7.202;2024-01-06T12:57:58;21.10;;;8.20;;
16626;SDS011;8427;52.204;7.202;2024-01-06T13:00:30;22.70;;;8.18;;
16626;SDS011;8427;52.204;7.202;2024-01-06T13:03:03;23.25;;;8.73;;
16626;SDS011;8427;52.204;7.202;2024-01-06T13:05:32;19.08;;;8.13;;
16626;SDS011;8427;52.204;7.202;2024-01-06T13:08:02;22.07;;;8.43;;
16626;SDS011;8427;52.204;7.202;2024-01-06T13:10:31;22.88;;;9.13;;
16626;SDS011;8427;52.204;7.202;2024-01-06T13:13:02;25.02;;;9.20;;
16626;SDS011;8427;52.204;7.202;2024-01-06T13:15:31;24.67;;;8.80;;
16626;SDS011;8427;52.204;7.202;2024-01-06T13:17:59;23.55;;;8.93;;
16626;SDS011;8427;52.204;7.202;2024-01-06T13:20:28;25.75;;;9.73;;
16626;SDS011;8427;52.204;7.202;2024-01-06T13:22:57;24.38;;;9.60;;
16626;SDS011;8427;52.204;7.202;2024-01-06T13:25:27;24.27;;;9.05;;
16626;SDS011;8427;52.204;7.202;2024-01-06T13:27:55;27.25;;;9.60;;
16626;SDS011;8427;52.204;7.202;2024-01-06T13:30:24;26.40;;;9.87;;
16626;SDS011;8427;52.204;7.202;2024-01-06T13:32:53;28.85;;;10.43;;
16626;SDS011;8427;52.204;7.202;2024-01-06T13:35:22;25.67;;;9.48;;
16626;SDS011;8427;52.204;7.202;2024-01-06T13:37:52;28.65;;;9.88;;
16626;SDS011;8427;52.204;7.202;2024-01-06T13:40:22;26.13;;;9.98;;
16626;SDS011;8427;52.204;7.202;2024-01-06T13:42:53;29.50;;;10.20;;
16626;SDS011;8427;52.204;7.202;2024-01-06T13:45:21;31.17;;;10.77;;
16626;SDS011;8427;52.204;7.202;2024-01-06T13:47:50;29.85;;;10.25;;
16626;SDS011;8427;52.204;7.202;2024-01-06T13:50:19;28.67;;;10.52;;
16626;SDS011;8427;52.204;7.202;2024-01-06T13:52:47;30.50;;;10.60;;
16626;SDS011;8427;52.204;7.202;2024-01-06T13:55:16;32.58;;;10.45;;
16626;SDS011;8427;52.204;7.202;2024-01-06T13:57:44;29.47;;;10.40;;
16626;SDS011;8427;52.204;7.202;2024-01-06T14:00:15;33.95;;;11.15;;
16626;SDS011;8427;52.204;7.202;2024-01-06T14:02:47;31.40;;;10.38;;
16626;SDS011;8427;52.204;7.202;2024-01-06T14:05:16;32.22;;;10.75;;
16626;SDS011;8427;52.204;7.202;2024-01-06T14:07:46;35.75;;;11.85;;
16626;SDS011;8427;52.204;7.202;2024-01-06T14:10:17;34.17;;;11.32;;
16626;SDS011;8427;52.204;7.202;2024-01-06T14:12:48;32.65;;;10.95;;
16626;SDS011;8427;52.204;7.202;2024-01-06T14:15:18;37.15;;;11.23;;
16626;SDS011;8427;52.204;7.202;2024-01-06T14:17:47;36.25;;;12.27;;
16626;SDS011;8427;52.204;7.202;2024-01-06T14:20:17;31.20;;;10.88;;
16626;SDS011;8427;52.204;7.202;2024-01-06T14:22:46;38.08;;;11.70;;
16626;SDS011;8427;52.204;7.202;2024-01-06T14:25:15;36.65;;;11.73;;
16626;SDS011;8427;52.204;7.202;2024-01-06T14:27:45;37.72;;;11.38;;
16626;SDS011;8427;52.204;7.202;2024-01-06T14:30:14;37.45;;;12.05;;
16626;SDS011;8427;52.204;7.202;2024-01-06T14:32:44;37.13;;;12.40;;
16626;SDS011;8427;52.204;7.202;2024-01-06T14:35:13;36.53;;;11.65;;
16626;SDS011;8427;52.204;7.202;2024-01-06T14:37:43;40.00;;;12.43;;
16626;SDS011;8427;52.204;7.202;2024-01-06T14:40:12;34.47;;;12.27;;
16626;SDS011;8427;52.204;7.202;2024-01-06T14:42:41;36.97;;;11.23;;
16626;SDS011;8427;52.204;7.202;2024-01-06T14:45:10;33.58;;;11.30;;
16626;SDS011;8427;52.204;7.202;2024-01-06T14:47:39;34.05;;;11.30;;
16626;SDS011;8427;52.204;7.202;2024-01-06T14:50:09;37.03;;;13.25;;
16626;SDS011;8427;52.204;7.202;2024-01-06T14:52:38;33.95;;;11.93;;
16626;SDS011;8427;52.204;7.202;2024-01-06T14:55:07;33.90;;;11.40;;
16626;SDS011;8427;52.204;7.202;2024-01-06T14:57:36;36.75;;;11.93;;
16626;SDS011;8427;52.204;7.202;2024-01-06T15:00:06;39.60;;;12.32;;
16626;SDS011;8427;52.204;7.202;2024-01-06T15:02:37;41.55;;;13.30;;
16626;SDS011;8427;52.204;7.202;2024-01-06T15:05:06;40.60;;;12.32;;
16626;SDS011;8427;52.204;7.202;2024-01-06T15:07:38;42.30;;;12.90;;
16626;SDS011;8427;52.204;7.202;2024-01-06T15:10:07;40.67;;;13.45;;
16626;SDS011;8427;52.204;7.202;2024-01-06T15:12:37;44.60;;;14.35;;
16626;SDS011;8427;52.204;7.202;2024-01-06T15:15:06;43.90;;;13.47;;
16626;SDS011;8427;52.204;7.202;2024-01-06T15:17:35;48.63;;;14.32;;
16626;SDS011;8427;52.204;7.202;2024-01-06T15:20:06;51.80;;;15.02;;
16626;SDS011;8427;52.204;7.202;2024-01-06T15:22:38;47.47;;;15.10;;
16626;SDS011;8427;52.204;7.202;2024-01-06T15:25:07;58.50;;;15.15;;
16626;SDS011;8427;52.204;7.202;2024-01-06T15:27:37;53.00;;;15.30;;